createdAt,value
2022-09-03T00:01:59.394Z,9.40
2022-09-03T00:04:43.748Z,9.40
2022-09-03T00:07:35.556Z,9.40
2022-09-03T00:10:10.672Z,9.50
2022-09-03T00:12:43.044Z,9.50
2022-09-03T00:15:21.882Z,9.50
2022-09-03T00:17:55.188Z,9.40
2022-09-03T00:20:31.403Z,9.30
2022-09-03T00:23:03.574Z,9.20
2022-09-03T00:25:44.881Z,9.30
2022-09-03T00:28:16.895Z,9.30
2022-09-03T00:30:57.467Z,9.40
2022-09-03T00:33:29.876Z,9.40
2022-09-03T00:36:02.730Z,9.40
2022-09-03T00:38:30.365Z,9.40
2022-09-03T00:41:07.025Z,9.50
2022-09-03T00:43:55.713Z,9.50
2022-09-03T00:46:48.257Z,9.50
2022-09-03T00:49:36.895Z,9.50
2022-09-03T00:52:24.682Z,9.50
2022-09-03T00:55:19.942Z,9.50
2022-09-03T00:57:58.975Z,9.60
2022-09-03T01:00:25.990Z,9.60
2022-09-03T01:02:56.929Z,9.60
2022-09-03T01:05:27.005Z,9.70
2022-09-03T01:08:15.953Z,9.70
2022-09-03T01:11:01.882Z,9.70
2022-09-03T01:13:56.430Z,9.60
2022-09-03T01:17:03.557Z,9.60
2022-09-03T01:20:31.364Z,9.70
2022-09-03T01:23:17.203Z,9.70
2022-09-03T01:25:54.842Z,9.70
2022-09-03T01:28:44.993Z,9.70
2022-09-03T01:31:27.126Z,9.80
2022-09-03T01:34:31.663Z,9.90
2022-09-03T01:37:40.169Z,9.90
2022-09-03T01:40:39.526Z,9.90
2022-09-03T01:43:24.201Z,10.00
2022-09-03T01:46:00.796Z,10.00
2022-09-03T01:48:36.003Z,10.00
2022-09-03T01:51:05.742Z,9.90
2022-09-03T01:54:02.046Z,9.90
2022-09-03T01:57:03.395Z,9.90
2022-09-03T01:59:38.255Z,9.80
2022-09-03T02:02:21.483Z,9.80
2022-09-03T02:05:11.337Z,9.80
2022-09-03T02:07:43.339Z,9.70
2022-09-03T02:10:19.829Z,9.70
2022-09-03T02:12:53.694Z,9.80
2022-09-03T02:15:23.362Z,9.80
2022-09-03T02:17:56.377Z,9.90
2022-09-03T02:20:27.178Z,9.90
2022-09-03T02:22:54.825Z,9.90
2022-09-03T02:25:27.613Z,10.00
2022-09-03T02:27:54.777Z,9.80
2022-09-03T02:30:21.807Z,9.90
2022-09-03T02:32:48.865Z,9.90
2022-09-03T02:35:15.917Z,10.00
2022-09-03T02:37:42.833Z,9.90
2022-09-03T02:40:11.143Z,9.80
2022-09-03T02:42:38.346Z,9.80
2022-09-03T02:45:24.305Z,9.90
2022-09-03T02:47:55.573Z,9.90
2022-09-03T02:50:22.694Z,10.00
2022-09-03T02:52:49.948Z,9.90
2022-09-03T02:55:17.461Z,10.00
2022-09-03T02:57:44.429Z,10.00
2022-09-03T03:00:12.399Z,10.00
2022-09-03T03:02:39.849Z,9.90
2022-09-03T03:05:10.169Z,9.80
2022-09-03T03:07:41.257Z,9.90
2022-09-03T03:10:09.007Z,9.90
2022-09-03T03:12:36.062Z,9.80
2022-09-03T03:15:03.076Z,9.80
2022-09-03T03:17:30.851Z,9.80
2022-09-03T03:19:57.792Z,9.80
2022-09-03T03:22:24.869Z,9.80
2022-09-03T03:24:52.886Z,9.80
2022-09-03T03:27:20.246Z,9.90
2022-09-03T03:29:47.301Z,9.70
2022-09-03T03:32:14.347Z,9.80
2022-09-03T03:34:41.393Z,9.80
2022-09-03T03:37:08.498Z,9.80
2022-09-03T03:39:35.573Z,9.80
2022-09-03T03:42:02.540Z,9.90
2022-09-03T03:44:29.852Z,9.90
2022-09-03T03:46:56.858Z,9.90
2022-09-03T03:49:23.819Z,9.80
2022-09-03T03:51:50.835Z,9.80
2022-09-03T03:54:19.768Z,9.80
2022-09-03T03:56:50.826Z,9.90
2022-09-03T03:59:22.968Z,9.90
2022-09-03T04:01:50.972Z,9.80
2022-09-03T04:04:17.915Z,9.70
2022-09-03T04:06:44.942Z,9.80
2022-09-03T04:09:11.957Z,9.80
2022-09-03T04:11:39.349Z,9.80
2022-09-03T04:14:06.718Z,9.90
2022-09-03T04:16:33.734Z,9.90
2022-09-03T04:19:00.726Z,9.90
2022-09-03T04:21:30.159Z,10.00
2022-09-03T04:23:57.986Z,10.00
2022-09-03T04:26:33.358Z,10.00
2022-09-03T04:29:02.998Z,10.00
2022-09-03T04:31:30.618Z,9.90
2022-09-03T04:33:59.298Z,10.00
2022-09-03T04:36:28.549Z,10.00
2022-09-03T04:38:56.575Z,10.00
2022-09-03T04:41:26.861Z,10.10
2022-09-03T04:43:55.846Z,10.00
2022-09-03T04:46:26.201Z,10.10
2022-09-03T04:48:55.168Z,10.20
2022-09-03T04:51:27.776Z,10.20
2022-09-03T04:53:58.516Z,10.20
2022-09-03T04:56:28.166Z,10.30
2022-09-03T04:59:00.219Z,10.40
2022-09-03T05:01:30.733Z,10.40
2022-09-03T05:03:58.227Z,10.40
2022-09-03T05:06:27.792Z,10.50
2022-09-03T05:08:58.810Z,10.50
2022-09-03T05:11:27.410Z,10.60
2022-09-03T05:13:56.819Z,10.50
2022-09-03T05:16:25.677Z,10.60
2022-09-03T05:18:54.682Z,10.60
2022-09-03T05:21:23.115Z,10.60
2022-09-03T05:23:51.095Z,10.80
2022-09-03T05:26:20.791Z,10.80
2022-09-03T05:28:48.462Z,10.70
2022-09-03T05:31:18.316Z,10.80
2022-09-03T05:33:54.100Z,10.70
2022-09-03T05:36:23.357Z,10.80
2022-09-03T05:38:50.956Z,10.80
2022-09-03T05:41:19.273Z,10.80
2022-09-03T05:43:51.976Z,10.70
2022-09-03T05:46:19.493Z,10.70
2022-09-03T05:48:46.700Z,10.80
2022-09-03T05:51:16.420Z,11.00
2022-09-03T05:53:45.841Z,10.90
2022-09-03T05:56:18.182Z,11.00
2022-09-03T05:58:50.519Z,11.10
2022-09-03T06:01:20.078Z,11.10
2022-09-03T06:03:58.590Z,11.10
2022-09-03T06:06:27.331Z,11.10
2022-09-03T06:08:56.418Z,11.10
2022-09-03T06:11:28.354Z,11.20
2022-09-03T06:14:01.574Z,11.20
2022-09-03T06:16:31.872Z,11.20
2022-09-03T06:19:02.456Z,11.30
2022-09-03T06:21:30.069Z,11.30
2022-09-03T06:23:59.358Z,11.30
2022-09-03T06:26:29.256Z,11.40
2022-09-03T06:28:57.217Z,11.40
2022-09-03T06:31:25.320Z,11.40
2022-09-03T06:33:54.739Z,11.50
2022-09-03T06:36:24.097Z,11.40
2022-09-03T06:38:56.268Z,11.50
2022-09-03T06:41:26.301Z,11.60
2022-09-03T06:43:59.345Z,11.70
2022-09-03T06:46:26.513Z,11.70
2022-09-03T06:48:53.565Z,11.70
2022-09-03T06:51:23.633Z,11.70
2022-09-03T06:53:54.610Z,11.80
2022-09-03T06:56:26.684Z,11.80
2022-09-03T06:58:58.879Z,11.80
2022-09-03T07:01:31.461Z,11.90
2022-09-03T07:04:04.207Z,11.90
2022-09-03T07:06:39.843Z,11.90
2022-09-03T07:09:07.989Z,12.00
2022-09-03T07:11:36.091Z,12.10
2022-09-03T07:14:05.136Z,11.90
2022-09-03T07:16:37.255Z,12.00
2022-09-03T07:19:09.284Z,12.10
2022-09-03T07:21:37.484Z,12.10
2022-09-03T07:24:05.990Z,12.20
2022-09-03T07:26:39.817Z,12.30
2022-09-03T07:29:08.035Z,12.30
2022-09-03T07:31:38.029Z,12.30
2022-09-03T07:34:10.167Z,12.30
2022-09-03T07:36:43.116Z,12.50
2022-09-03T07:39:12.227Z,12.50
2022-09-03T07:41:41.384Z,12.50
2022-09-03T07:44:09.294Z,12.40
2022-09-03T07:46:38.338Z,12.40
2022-09-03T07:49:06.455Z,12.50
2022-09-03T07:51:38.616Z,12.60
2022-09-03T07:54:09.443Z,12.40
2022-09-03T07:56:37.165Z,12.60
2022-09-03T07:59:05.446Z,12.40
2022-09-03T08:01:34.113Z,12.50
2022-09-03T08:04:02.927Z,12.50
2022-09-03T08:06:31.447Z,12.40
2022-09-03T08:09:05.373Z,12.60
2022-09-03T08:11:36.796Z,12.40
2022-09-03T08:14:06.883Z,12.30
2022-09-03T08:16:40.016Z,12.30
2022-09-03T08:19:07.766Z,12.20
2022-09-03T08:21:35.328Z,12.40
2022-09-03T08:24:03.027Z,12.40
2022-09-03T08:26:32.147Z,12.40
2022-09-03T08:29:01.292Z,12.50
2022-09-03T08:31:29.468Z,12.50
2022-09-03T08:33:58.766Z,12.40
2022-09-03T08:36:30.114Z,12.40
2022-09-03T08:38:59.564Z,12.30
2022-09-03T08:42:05.295Z,12.30
2022-09-03T08:44:47.452Z,12.30
2022-09-03T08:47:27.206Z,12.50
2022-09-03T08:50:19.026Z,12.20
2022-09-03T08:52:50.452Z,12.30
2022-09-03T08:55:35.539Z,12.40
2022-09-03T08:58:07.564Z,12.50
2022-09-03T09:01:08.123Z,12.50
2022-09-03T09:03:57.321Z,12.40
2022-09-03T09:06:57.492Z,12.40
2022-09-03T09:09:40.883Z,12.40
2022-09-03T09:12:10.761Z,12.30
2022-09-03T09:15:06.390Z,12.40
2022-09-03T09:17:51.405Z,12.20
2022-09-03T09:20:39.285Z,12.10
2022-09-03T09:23:11.531Z,12.20
2022-09-03T09:25:48.537Z,12.20
2022-09-03T09:28:31.136Z,12.40
2022-09-03T09:30:58.371Z,12.40
2022-09-03T09:33:25.728Z,12.50
2022-09-03T09:35:53.145Z,12.60
2022-09-03T09:38:38.965Z,12.80
2022-09-03T09:41:18.859Z,12.90
2022-09-03T09:43:50.700Z,13.00
2022-09-03T09:46:23.059Z,12.90
2022-09-03T09:48:58.379Z,12.90
2022-09-03T09:51:31.247Z,13.00
2022-09-03T09:54:20.275Z,13.10
2022-09-03T09:56:58.994Z,12.80
2022-09-03T09:59:26.194Z,13.00
2022-09-03T10:02:27.988Z,13.00
2022-09-03T10:05:01.842Z,13.10
2022-09-03T10:07:33.285Z,13.10
2022-09-03T10:10:00.339Z,13.10
2022-09-03T10:12:59.719Z,12.90
2022-09-03T10:15:36.579Z,13.10
2022-09-03T10:18:30.511Z,13.10
2022-09-03T10:21:11.233Z,13.20
2022-09-03T10:23:41.290Z,13.20
2022-09-03T10:26:16.854Z,13.30
2022-09-03T10:28:49.603Z,13.30
2022-09-03T10:31:39.851Z,13.30
2022-09-03T10:34:24.806Z,13.30
2022-09-03T10:37:41.587Z,13.30
2022-09-03T10:40:20.496Z,13.60
2022-09-03T10:42:56.744Z,13.80
2022-09-03T10:45:33.454Z,13.30
2022-09-03T10:48:34.683Z,13.40
2022-09-03T10:51:11.700Z,13.30
2022-09-03T10:53:41.516Z,13.30
2022-09-03T10:56:17.699Z,13.00
2022-09-03T10:59:03.647Z,13.20
2022-09-03T11:01:42.781Z,13.40
2022-09-03T11:04:37.842Z,13.40
2022-09-03T11:07:09.681Z,13.60
2022-09-03T11:09:54.224Z,13.80
2022-09-03T11:12:30.979Z,13.70
2022-09-03T11:15:10.096Z,13.70
2022-09-03T11:17:58.581Z,13.70
2022-09-03T11:20:26.778Z,13.80
2022-09-03T11:22:57.741Z,13.60
2022-09-03T11:25:35.751Z,13.50
2022-09-03T11:28:24.746Z,13.60
2022-09-03T11:31:39.550Z,13.50
2022-09-03T11:34:31.669Z,13.70
2022-09-03T11:37:20.037Z,13.80
2022-09-03T11:40:08.155Z,13.80
2022-09-03T11:42:45.452Z,13.90
2022-09-03T11:45:20.597Z,13.80
2022-09-03T11:47:48.097Z,13.90
2022-09-03T11:50:25.850Z,13.70
2022-09-03T11:53:14.538Z,14.20
2022-09-03T11:55:55.717Z,14.10
2022-09-03T11:58:33.058Z,14.30
2022-09-03T12:01:02.982Z,14.20
2022-09-03T12:03:44.959Z,14.00
2022-09-03T12:06:26.663Z,14.20
2022-09-03T12:09:30.621Z,14.20
2022-09-03T12:12:37.998Z,14.40
2022-09-03T12:15:11.150Z,14.20
2022-09-03T12:18:22.712Z,14.30
2022-09-03T12:20:56.002Z,14.20
2022-09-03T12:23:34.619Z,13.80
2022-09-03T12:26:06.308Z,13.90
2022-09-03T12:28:41.454Z,14.00
2022-09-03T12:31:24.873Z,14.00
2022-09-03T12:33:54.123Z,14.20
2022-09-03T12:36:24.236Z,13.90
2022-09-03T12:41:39.439Z,14.20
2022-09-03T12:44:06.618Z,14.30
2022-09-03T12:46:34.693Z,14.40
2022-09-03T12:52:03.123Z,14.20
2022-09-03T12:54:32.987Z,14.20
2022-09-03T12:57:00.968Z,13.90
2022-09-03T12:59:31.877Z,13.90
2022-09-03T13:02:05.944Z,13.90
2022-09-03T13:04:35.733Z,13.70
2022-09-03T13:07:24.351Z,13.90
2022-09-03T13:09:51.458Z,14.10
2022-09-03T13:12:43.177Z,14.10
2022-09-03T13:15:19.971Z,14.00
2022-09-03T13:18:37.763Z,14.00
2022-09-03T13:21:16.443Z,13.70
2022-09-03T13:24:21.415Z,13.90
2022-09-03T13:27:08.480Z,13.90
2022-09-03T13:29:35.657Z,14.10
2022-09-03T13:32:51.215Z,14.20
2022-09-03T13:35:27.683Z,14.00
2022-09-03T13:38:19.539Z,14.30
2022-09-03T13:41:20.055Z,14.60
2022-09-03T13:44:07.904Z,14.40
2022-09-03T13:46:51.564Z,14.30
2022-09-03T13:49:43.567Z,14.30
2022-09-03T13:52:23.038Z,14.20
2022-09-03T13:55:00.539Z,14.60
2022-09-03T13:57:38.682Z,14.70
2022-09-03T14:00:10.610Z,14.80
2022-09-03T14:03:03.695Z,14.50
2022-09-03T14:06:11.818Z,14.60
2022-09-03T14:09:14.048Z,14.50
2022-09-03T14:11:53.028Z,14.30
2022-09-03T14:14:57.068Z,14.30
2022-09-03T14:18:05.305Z,14.50
2022-09-03T14:20:46.614Z,14.40
2022-09-03T14:23:35.181Z,14.40
2022-09-03T14:26:05.967Z,14.50
2022-09-03T14:28:40.492Z,14.50
2022-09-03T14:31:52.745Z,14.50
2022-09-03T14:34:43.362Z,14.50
2022-09-03T14:37:42.039Z,14.50
2022-09-03T14:40:31.075Z,14.40
2022-09-03T14:43:25.563Z,14.50
2022-09-03T14:46:06.606Z,14.20
2022-09-03T14:49:05.160Z,14.00
2022-09-03T14:52:07.417Z,13.80
2022-09-03T14:54:55.768Z,14.00
2022-09-03T14:57:35.656Z,14.20
2022-09-03T15:00:34.978Z,14.30
2022-09-03T15:03:23.597Z,14.30
2022-09-03T15:05:58.691Z,14.20
2022-09-03T15:08:37.675Z,14.20
2022-09-03T15:11:23.018Z,14.20
2022-09-03T15:14:04.903Z,14.30
2022-09-03T15:16:55.024Z,14.20
2022-09-03T15:19:34.313Z,14.20
2022-09-03T15:22:29.963Z,14.20
2022-09-03T15:25:21.646Z,14.10
2022-09-03T15:27:55.085Z,13.70
2022-09-03T15:30:22.304Z,13.80
2022-09-03T15:32:52.577Z,13.90
2022-09-03T15:35:56.804Z,14.00
2022-09-03T15:38:30.214Z,14.00
2022-09-03T15:41:01.742Z,13.60
2022-09-03T15:43:33.939Z,13.60
2022-09-03T15:46:12.226Z,13.70
2022-09-03T15:49:02.886Z,13.50
2022-09-03T15:52:11.929Z,13.60
2022-09-03T15:55:06.841Z,13.60
2022-09-03T15:58:05.137Z,13.60
2022-09-03T16:00:42.077Z,13.70
2022-09-03T16:03:23.858Z,13.70
2022-09-03T16:06:20.989Z,13.70
2022-09-03T16:08:55.689Z,13.70
2022-09-03T16:11:33.126Z,13.70
2022-09-03T16:14:12.984Z,13.70
2022-09-03T16:16:58.474Z,13.60
2022-09-03T16:19:47.700Z,13.50
2022-09-03T16:22:32.003Z,13.50
2022-09-03T16:25:20.179Z,13.50
2022-09-03T16:28:15.008Z,13.40
2022-09-03T16:30:48.308Z,13.40
2022-09-03T16:33:42.534Z,13.40
2022-09-03T16:36:23.047Z,13.30
2022-09-03T16:39:07.689Z,13.30
2022-09-03T16:41:47.170Z,13.10
2022-09-03T16:44:17.494Z,12.80
2022-09-03T16:47:04.702Z,13.00
2022-09-03T16:49:51.581Z,12.90
2022-09-03T16:52:38.501Z,12.90
2022-09-03T16:55:15.067Z,12.80
2022-09-03T16:58:01.599Z,12.70
2022-09-03T17:00:59.316Z,12.70
2022-09-03T17:03:52.859Z,12.80
2022-09-03T17:06:34.656Z,12.70
2022-09-03T17:09:02.208Z,12.80
2022-09-03T17:11:43.718Z,12.70
2022-09-03T17:14:38.319Z,12.60
2022-09-03T17:17:22.375Z,12.70
2022-09-03T17:19:58.226Z,12.60
2022-09-03T17:22:44.514Z,12.70
2022-09-03T17:25:36.046Z,12.70
2022-09-03T17:28:38.424Z,12.80
2022-09-03T17:31:22.430Z,12.80
2022-09-03T17:34:01.460Z,12.80
2022-09-03T17:36:31.580Z,12.80
2022-09-03T17:39:19.637Z,12.80
2022-09-03T17:42:05.413Z,12.70
2022-09-03T17:45:16.968Z,12.70
2022-09-03T17:47:50.339Z,12.70
2022-09-03T17:50:26.332Z,12.70
2022-09-03T17:52:58.922Z,12.70
2022-09-03T17:55:43.664Z,12.80
2022-09-03T17:58:49.655Z,12.80
2022-09-03T18:01:27.254Z,12.80
2022-09-03T18:04:03.257Z,12.70
2022-09-03T18:06:40.828Z,12.50
2022-09-03T18:09:17.420Z,12.50
2022-09-03T18:12:06.033Z,12.60
2022-09-03T18:14:49.419Z,12.40
2022-09-03T18:17:37.674Z,12.50
2022-09-03T18:20:29.076Z,12.60
2022-09-03T18:23:28.718Z,12.50
2022-09-03T18:26:21.859Z,12.50
2022-09-03T18:29:36.521Z,12.50
2022-09-03T18:32:22.057Z,12.40
2022-09-03T18:35:07.814Z,12.30
2022-09-03T18:37:55.027Z,12.20
2022-09-03T18:40:46.611Z,12.20
2022-09-03T18:43:43.125Z,12.10
2022-09-03T18:49:45.907Z,12.00
2022-09-03T18:52:46.844Z,11.90
2022-09-03T18:55:51.747Z,11.70
2022-09-03T18:59:27.953Z,11.70
2022-09-03T19:02:14.485Z,11.70
2022-09-03T19:05:12.718Z,11.80
2022-09-03T19:08:24.547Z,11.80
2022-09-03T19:11:17.034Z,11.70
2022-09-03T19:14:04.688Z,11.90
2022-09-03T19:17:25.796Z,11.90
2022-09-03T19:20:21.084Z,11.90
2022-09-03T19:23:07.006Z,11.90
2022-09-03T19:25:52.479Z,12.00
2022-09-03T19:28:44.418Z,12.00
2022-09-03T19:31:38.226Z,11.80
2022-09-03T19:34:55.462Z,11.80
2022-09-03T19:37:51.771Z,11.80
2022-09-03T19:40:55.738Z,11.80
2022-09-03T19:43:53.601Z,11.90
2022-09-03T19:47:03.205Z,11.80
2022-09-03T19:50:14.408Z,11.80
2022-09-03T19:53:22.280Z,11.80
2022-09-03T19:56:12.985Z,11.60
2022-09-03T19:59:04.010Z,11.60
2022-09-03T20:01:55.519Z,11.50
2022-09-03T20:04:53.377Z,11.60
2022-09-03T20:07:40.864Z,11.60
2022-09-03T20:10:23.545Z,11.70
2022-09-03T20:13:04.525Z,11.60
2022-09-03T20:15:43.895Z,11.60
2022-09-03T20:18:44.907Z,11.60
2022-09-03T20:21:45.340Z,11.60
2022-09-03T20:24:26.102Z,11.70
2022-09-03T20:26:56.231Z,11.70
2022-09-03T20:29:55.562Z,11.80
2022-09-03T20:32:55.945Z,11.70
2022-09-03T20:35:40.867Z,11.70
2022-09-03T20:38:29.213Z,11.60
2022-09-03T20:41:13.817Z,11.50
2022-09-03T20:44:08.358Z,11.50
2022-09-03T20:46:38.432Z,11.50
2022-09-03T20:49:38.199Z,11.60
2022-09-03T20:52:29.104Z,11.50
2022-09-03T20:55:24.121Z,11.60
2022-09-03T20:58:15.535Z,11.50
2022-09-03T21:00:52.586Z,11.50
2022-09-03T21:03:26.527Z,11.40
2022-09-03T21:06:12.277Z,11.40
2022-09-03T21:08:48.567Z,11.40
2022-09-03T21:11:19.517Z,11.40
2022-09-03T21:13:55.761Z,11.40
2022-09-03T21:16:55.332Z,11.40
2022-09-03T21:19:22.382Z,11.40
2022-09-03T21:22:01.329Z,11.40
2022-09-03T21:24:37.234Z,11.50
2022-09-03T21:27:11.042Z,11.60
2022-09-03T21:29:43.099Z,11.40
2022-09-03T21:32:28.474Z,11.40
2022-09-03T21:35:21.434Z,11.50
2022-09-03T21:37:55.962Z,11.60
2022-09-03T21:40:29.202Z,11.50
2022-09-03T21:43:07.822Z,11.50
2022-09-03T21:45:57.409Z,11.50
2022-09-03T21:48:38.546Z,11.40
2022-09-03T21:51:22.071Z,11.40
2022-09-03T21:53:53.798Z,11.50
2022-09-03T21:56:46.534Z,11.50
2022-09-03T21:59:52.566Z,11.50
2022-09-03T22:02:33.727Z,11.40
2022-09-03T22:05:11.941Z,11.40
2022-09-03T22:08:17.733Z,11.40
2022-09-03T22:10:44.745Z,11.50
2022-09-03T22:13:38.263Z,11.50
2022-09-03T22:16:13.648Z,11.50
2022-09-03T22:18:40.988Z,11.60
2022-09-03T22:21:24.877Z,11.50
2022-09-03T22:24:23.252Z,11.50
2022-09-03T22:27:18.501Z,11.50
2022-09-03T22:29:57.234Z,11.50
2022-09-03T22:32:34.746Z,11.50
2022-09-03T22:35:30.305Z,11.50
2022-09-03T22:38:09.580Z,11.60
2022-09-03T22:40:56.181Z,11.60
2022-09-03T22:43:36.001Z,11.60
2022-09-03T22:46:18.310Z,11.60
2022-09-03T22:49:07.314Z,11.60
2022-09-03T22:52:13.769Z,11.60
2022-09-03T22:54:59.942Z,11.50
2022-09-03T22:57:29.402Z,11.50
2022-09-03T23:00:09.564Z,11.50
2022-09-03T23:02:38.493Z,11.50
2022-09-03T23:05:24.931Z,11.50
2022-09-03T23:07:55.145Z,11.50
2022-09-03T23:10:42.742Z,11.60
2022-09-03T23:13:23.496Z,11.70
2022-09-03T23:16:00.589Z,11.50
2022-09-03T23:18:32.816Z,11.50
2022-09-03T23:21:24.633Z,11.40
2022-09-03T23:23:57.987Z,11.40
2022-09-03T23:26:52.603Z,11.50
2022-09-03T23:29:38.394Z,11.50
2022-09-03T23:32:05.616Z,11.50
2022-09-03T23:34:33.288Z,11.50
2022-09-03T23:37:36.493Z,11.50
2022-09-03T23:40:14.982Z,11.40
2022-09-03T23:43:03.155Z,11.40
2022-09-03T23:46:18.357Z,11.40
2022-09-03T23:49:17.726Z,11.40
2022-09-03T23:51:56.735Z,11.40
2022-09-03T23:54:48.048Z,11.50
2022-09-03T23:57:33.411Z,11.50
